sensor_id;sensor_type;location;lat;lon;timestamp;P1;durP1;ratioP1;P2;durP2;ratioP2
19869;SDS011;10097;50.862;4.696;2022-12-01T00:00:19;38.27;;;19.73;;
19869;SDS011;10097;50.862;4.696;2022-12-01T00:02:44;37.83;;;18.47;;
19869;SDS011;10097;50.862;4.696;2022-12-01T00:05:10;32.53;;;18.27;;
19869;SDS011;10097;50.862;4.696;2022-12-01T00:07:35;36.63;;;18.30;;
19869;SDS011;10097;50.862;4.696;2022-12-01T00:10:01;40.03;;;19.30;;
19869;SDS011;10097;50.862;4.696;2022-12-01T00:12:45;33.47;;;18.53;;
19869;SDS011;10097;50.862;4.696;2022-12-01T00:15:11;39.90;;;21.10;;
19869;SDS011;10097;50.862;4.696;2022-12-01T00:17:37;34.73;;;17.30;;
19869;SDS011;10097;50.862;4.696;2022-12-01T00:20:03;38.37;;;18.83;;
19869;SDS011;10097;50.862;4.696;2022-12-01T00:22:30;33.67;;;17.77;;
19869;SDS011;10097;50.862;4.696;2022-12-01T00:24:56;37.93;;;18.40;;
19869;SDS011;10097;50.862;4.696;2022-12-01T00:27:21;33.17;;;17.87;;
19869;SDS011;10097;50.862;4.696;2022-12-01T00:29:47;37.30;;;19.73;;
19869;SDS011;10097;50.862;4.696;2022-12-01T00:32:13;33.77;;;18.63;;
19869;SDS011;10097;50.862;4.696;2022-12-01T00:34:39;33.93;;;18.37;;
19869;SDS011;10097;50.862;4.696;2022-12-01T00:37:04;34.53;;;17.73;;
19869;SDS011;10097;50.862;4.696;2022-12-01T00:39:30;35.83;;;19.27;;
19869;SDS011;10097;50.862;4.696;2022-12-01T00:41:56;34.97;;;18.87;;
19869;SDS011;10097;50.862;4.696;2022-12-01T00:44:22;37.23;;;19.13;;
19869;SDS011;10097;50.862;4.696;2022-12-01T00:46:47;36.10;;;18.07;;
19869;SDS011;10097;50.862;4.696;2022-12-01T00:49:13;37.57;;;19.10;;
19869;SDS011;10097;50.862;4.696;2022-12-01T00:51:39;33.70;;;18.20;;
19869;SDS011;10097;50.862;4.696;2022-12-01T00:54:05;33.17;;;18.70;;
19869;SDS011;10097;50.862;4.696;2022-12-01T00:56:31;32.07;;;17.97;;
19869;SDS011;10097;50.862;4.696;2022-12-01T00:58:56;35.70;;;17.40;;
19869;SDS011;10097;50.862;4.696;2022-12-01T01:01:22;33.77;;;18.70;;
19869;SDS011;10097;50.862;4.696;2022-12-01T01:03:48;34.87;;;18.50;;
19869;SDS011;10097;50.862;4.696;2022-12-01T01:06:13;36.37;;;17.70;;
19869;SDS011;10097;50.862;4.696;2022-12-01T01:08:39;37.43;;;18.23;;
19869;SDS011;10097;50.862;4.696;2022-12-01T01:11:05;33.30;;;17.27;;
19869;SDS011;10097;50.862;4.696;2022-12-01T01:13:32;37.17;;;19.27;;
19869;SDS011;10097;50.862;4.696;2022-12-01T01:16:03;33.40;;;17.50;;
19869;SDS011;10097;50.862;4.696;2022-12-01T01:18:37;35.37;;;18.97;;
19869;SDS011;10097;50.862;4.696;2022-12-01T01:21:04;36.10;;;18.30;;
19869;SDS011;10097;50.862;4.696;2022-12-01T01:23:35;36.70;;;18.50;;
19869;SDS011;10097;50.862;4.696;2022-12-01T01:26:09;37.30;;;19.87;;
19869;SDS011;10097;50.862;4.696;2022-12-01T01:28:36;34.57;;;18.07;;
19869;SDS011;10097;50.862;4.696;2022-12-01T01:31:06;35.80;;;19.30;;
19869;SDS011;10097;50.862;4.696;2022-12-01T01:33:33;36.93;;;18.97;;
19869;SDS011;10097;50.862;4.696;2022-12-01T01:35:59;34.87;;;19.00;;
19869;SDS011;10097;50.862;4.696;2022-12-01T01:38:26;37.50;;;18.80;;
19869;SDS011;10097;50.862;4.696;2022-12-01T01:40:52;38.17;;;19.23;;
19869;SDS011;10097;50.862;4.696;2022-12-01T01:43:37;36.53;;;19.13;;
19869;SDS011;10097;50.862;4.696;2022-12-01T01:46:05;38.47;;;18.93;;
19869;SDS011;10097;50.862;4.696;2022-12-01T01:48:31;37.63;;;19.43;;
19869;SDS011;10097;50.862;4.696;2022-12-01T01:50:59;37.10;;;19.07;;
19869;SDS011;10097;50.862;4.696;2022-12-01T01:53:25;36.87;;;18.80;;
19869;SDS011;10097;50.862;4.696;2022-12-01T01:55:51;39.77;;;19.77;;
19869;SDS011;10097;50.862;4.696;2022-12-01T01:58:17;39.63;;;19.73;;
19869;SDS011;10097;50.862;4.696;2022-12-01T02:00:44;37.43;;;19.43;;
19869;SDS011;10097;50.862;4.696;2022-12-01T02:03:12;34.57;;;18.13;;
19869;SDS011;10097;50.862;4.696;2022-12-01T02:05:40;38.23;;;19.47;;
19869;SDS011;10097;50.862;4.696;2022-12-01T02:08:09;37.77;;;19.73;;
19869;SDS011;10097;50.862;4.696;2022-12-01T02:18:55;36.40;;;18.93;;
19869;SDS011;10097;50.862;4.696;2022-12-01T02:24:50;42.17;;;19.00;;
19869;SDS011;10097;50.862;4.696;2022-12-01T02:28:28;39.30;;;19.13;;
19869;SDS011;10097;50.862;4.696;2022-12-01T02:33:34;35.63;;;18.13;;
19869;SDS011;10097;50.862;4.696;2022-12-01T02:38:43;38.47;;;18.77;;
19869;SDS011;10097;50.862;4.696;2022-12-01T02:41:31;39.80;;;18.93;;
19869;SDS011;10097;50.862;4.696;2022-12-01T02:44:07;35.23;;;18.20;;
19869;SDS011;10097;50.862;4.696;2022-12-01T02:46:51;39.47;;;20.27;;
19869;SDS011;10097;50.862;4.696;2022-12-01T02:49:32;39.20;;;19.00;;
19869;SDS011;10097;50.862;4.696;2022-12-01T02:52:02;40.60;;;19.67;;
19869;SDS011;10097;50.862;4.696;2022-12-01T02:54:30;39.43;;;19.57;;
19869;SDS011;10097;50.862;4.696;2022-12-01T02:56:57;36.07;;;17.77;;
19869;SDS011;10097;50.862;4.696;2022-12-01T02:59:23;38.57;;;20.47;;
19869;SDS011;10097;50.862;4.696;2022-12-01T03:07:33;40.30;;;19.03;;
19869;SDS011;10097;50.862;4.696;2022-12-01T03:15:17;42.27;;;18.90;;
19869;SDS011;10097;50.862;4.696;2022-12-01T03:20:49;41.60;;;19.17;;
19869;SDS011;10097;50.862;4.696;2022-12-01T03:23:36;39.97;;;19.03;;
19869;SDS011;10097;50.862;4.696;2022-12-01T03:26:05;39.17;;;18.27;;
19869;SDS011;10097;50.862;4.696;2022-12-01T03:28:35;41.00;;;19.23;;
19869;SDS011;10097;50.862;4.696;2022-12-01T03:31:06;40.63;;;19.13;;
19869;SDS011;10097;50.862;4.696;2022-12-01T03:33:42;42.17;;;19.57;;
19869;SDS011;10097;50.862;4.696;2022-12-01T03:36:19;51.30;;;21.73;;
19869;SDS011;10097;50.862;4.696;2022-12-01T03:38:51;43.33;;;19.17;;
19869;SDS011;10097;50.862;4.696;2022-12-01T03:41:24;44.60;;;19.03;;
19869;SDS011;10097;50.862;4.696;2022-12-01T03:43:59;42.33;;;19.30;;
19869;SDS011;10097;50.862;4.696;2022-12-01T03:48:59;46.03;;;19.33;;
19869;SDS011;10097;50.862;4.696;2022-12-01T03:51:30;46.77;;;18.60;;
19869;SDS011;10097;50.862;4.696;2022-12-01T03:56:35;55.13;;;21.13;;
19869;SDS011;10097;50.862;4.696;2022-12-01T03:59:08;46.30;;;19.37;;
19869;SDS011;10097;50.862;4.696;2022-12-01T04:01:35;49.53;;;20.77;;
19869;SDS011;10097;50.862;4.696;2022-12-01T04:04:19;48.97;;;19.33;;
19869;SDS011;10097;50.862;4.696;2022-12-01T04:06:45;44.67;;;19.37;;
19869;SDS011;10097;50.862;4.696;2022-12-01T04:09:14;53.67;;;20.87;;
19869;SDS011;10097;50.862;4.696;2022-12-01T04:11:40;47.47;;;19.90;;
19869;SDS011;10097;50.862;4.696;2022-12-01T04:14:24;49.57;;;20.93;;
19869;SDS011;10097;50.862;4.696;2022-12-01T04:16:49;48.07;;;21.30;;
19869;SDS011;10097;50.862;4.696;2022-12-01T04:19:15;47.07;;;20.47;;
19869;SDS011;10097;50.862;4.696;2022-12-01T04:21:41;45.97;;;19.80;;
19869;SDS011;10097;50.862;4.696;2022-12-01T04:24:06;53.43;;;22.23;;
19869;SDS011;10097;50.862;4.696;2022-12-01T04:26:33;47.47;;;20.93;;
19869;SDS011;10097;50.862;4.696;2022-12-01T04:29:01;50.70;;;20.03;;
19869;SDS011;10097;50.862;4.696;2022-12-01T04:31:29;52.77;;;20.77;;
19869;SDS011;10097;50.862;4.696;2022-12-01T04:33:55;49.57;;;20.70;;
19869;SDS011;10097;50.862;4.696;2022-12-01T04:36:22;54.93;;;22.17;;
19869;SDS011;10097;50.862;4.696;2022-12-01T04:38:48;59.93;;;21.00;;
19869;SDS011;10097;50.862;4.696;2022-12-01T04:41:14;52.43;;;21.83;;
19869;SDS011;10097;50.862;4.696;2022-12-01T04:43:40;57.03;;;21.80;;
19869;SDS011;10097;50.862;4.696;2022-12-01T04:46:06;59.00;;;21.60;;
19869;SDS011;10097;50.862;4.696;2022-12-01T04:48:35;56.80;;;21.87;;
19869;SDS011;10097;50.862;4.696;2022-12-01T04:51:02;61.13;;;22.40;;
19869;SDS011;10097;50.862;4.696;2022-12-01T04:53:29;65.23;;;22.07;;
19869;SDS011;10097;50.862;4.696;2022-12-01T04:56:00;58.93;;;23.57;;
19869;SDS011;10097;50.862;4.696;2022-12-01T04:58:29;63.23;;;23.07;;
19869;SDS011;10097;50.862;4.696;2022-12-01T05:01:00;68.77;;;23.80;;
19869;SDS011;10097;50.862;4.696;2022-12-01T05:03:27;58.13;;;22.30;;
19869;SDS011;10097;50.862;4.696;2022-12-01T05:08:55;62.73;;;23.67;;
19869;SDS011;10097;50.862;4.696;2022-12-01T05:11:23;76.80;;;26.07;;
19869;SDS011;10097;50.862;4.696;2022-12-01T05:13:49;62.17;;;23.60;;
19869;SDS011;10097;50.862;4.696;2022-12-01T05:16:16;69.50;;;24.47;;
19869;SDS011;10097;50.862;4.696;2022-12-01T05:18:47;63.20;;;24.70;;
19869;SDS011;10097;50.862;4.696;2022-12-01T05:21:14;66.53;;;24.80;;
19869;SDS011;10097;50.862;4.696;2022-12-01T05:23:40;75.37;;;26.13;;
19869;SDS011;10097;50.862;4.696;2022-12-01T05:26:09;60.30;;;24.43;;
19869;SDS011;10097;50.862;4.696;2022-12-01T05:28:35;69.70;;;24.80;;
19869;SDS011;10097;50.862;4.696;2022-12-01T05:31:01;69.93;;;23.20;;
19869;SDS011;10097;50.862;4.696;2022-12-01T05:33:27;69.53;;;25.57;;
19869;SDS011;10097;50.862;4.696;2022-12-01T05:35:53;71.33;;;25.17;;
19869;SDS011;10097;50.862;4.696;2022-12-01T05:38:19;72.30;;;25.80;;
19869;SDS011;10097;50.862;4.696;2022-12-01T05:40:51;62.20;;;24.47;;
19869;SDS011;10097;50.862;4.696;2022-12-01T05:43:19;61.30;;;23.33;;
19869;SDS011;10097;50.862;4.696;2022-12-01T05:45:45;62.87;;;23.97;;
19869;SDS011;10097;50.862;4.696;2022-12-01T05:48:13;61.37;;;23.17;;
19869;SDS011;10097;50.862;4.696;2022-12-01T05:50:39;57.37;;;24.40;;
19869;SDS011;10097;50.862;4.696;2022-12-01T05:53:05;61.73;;;24.53;;
19869;SDS011;10097;50.862;4.696;2022-12-01T05:55:32;59.53;;;24.50;;
19869;SDS011;10097;50.862;4.696;2022-12-01T05:57:58;60.57;;;23.50;;
19869;SDS011;10097;50.862;4.696;2022-12-01T06:00:24;62.80;;;24.13;;
19869;SDS011;10097;50.862;4.696;2022-12-01T06:02:50;63.00;;;24.20;;
19869;SDS011;10097;50.862;4.696;2022-12-01T06:05:16;63.93;;;23.83;;
19869;SDS011;10097;50.862;4.696;2022-12-01T06:07:41;58.43;;;22.47;;
19869;SDS011;10097;50.862;4.696;2022-12-01T06:10:07;60.03;;;21.47;;
19869;SDS011;10097;50.862;4.696;2022-12-01T06:12:34;57.73;;;23.07;;
19869;SDS011;10097;50.862;4.696;2022-12-01T06:14:59;58.37;;;22.70;;
19869;SDS011;10097;50.862;4.696;2022-12-01T06:17:25;62.00;;;24.27;;
19869;SDS011;10097;50.862;4.696;2022-12-01T06:19:51;59.40;;;23.00;;
19869;SDS011;10097;50.862;4.696;2022-12-01T06:22:16;61.53;;;23.43;;
19869;SDS011;10097;50.862;4.696;2022-12-01T06:24:42;59.43;;;23.80;;
19869;SDS011;10097;50.862;4.696;2022-12-01T06:27:07;62.97;;;23.37;;
19869;SDS011;10097;50.862;4.696;2022-12-01T06:29:33;59.33;;;22.87;;
19869;SDS011;10097;50.862;4.696;2022-12-01T06:31:59;60.50;;;22.47;;
19869;SDS011;10097;50.862;4.696;2022-12-01T06:34:24;60.97;;;23.07;;
19869;SDS011;10097;50.862;4.696;2022-12-01T06:36:50;65.80;;;24.53;;
19869;SDS011;10097;50.862;4.696;2022-12-01T06:39:16;63.63;;;22.90;;
19869;SDS011;10097;50.862;4.696;2022-12-01T06:41:41;59.93;;;23.17;;
19869;SDS011;10097;50.862;4.696;2022-12-01T06:44:07;53.43;;;21.77;;
19869;SDS011;10097;50.862;4.696;2022-12-01T06:46:34;61.57;;;23.77;;
19869;SDS011;10097;50.862;4.696;2022-12-01T06:49:00;65.93;;;23.07;;
19869;SDS011;10097;50.862;4.696;2022-12-01T06:51:25;61.33;;;23.40;;
19869;SDS011;10097;50.862;4.696;2022-12-01T06:53:54;65.90;;;24.00;;
19869;SDS011;10097;50.862;4.696;2022-12-01T06:56:20;57.07;;;21.83;;
19869;SDS011;10097;50.862;4.696;2022-12-01T06:58:50;62.97;;;22.30;;
19869;SDS011;10097;50.862;4.696;2022-12-01T07:01:17;57.33;;;22.27;;
19869;SDS011;10097;50.862;4.696;2022-12-01T07:03:49;63.80;;;23.00;;
19869;SDS011;10097;50.862;4.696;2022-12-01T07:06:15;61.50;;;23.40;;
19869;SDS011;10097;50.862;4.696;2022-12-01T07:08:42;63.33;;;23.17;;
19869;SDS011;10097;50.862;4.696;2022-12-01T07:11:09;57.53;;;22.50;;
19869;SDS011;10097;50.862;4.696;2022-12-01T07:13:37;59.23;;;22.80;;
19869;SDS011;10097;50.862;4.696;2022-12-01T07:16:04;55.47;;;22.53;;
19869;SDS011;10097;50.862;4.696;2022-12-01T07:18:31;57.97;;;22.33;;
19869;SDS011;10097;50.862;4.696;2022-12-01T07:20:58;57.93;;;22.60;;
19869;SDS011;10097;50.862;4.696;2022-12-01T07:23:29;57.73;;;22.17;;
19869;SDS011;10097;50.862;4.696;2022-12-01T07:26:01;52.33;;;21.53;;
19869;SDS011;10097;50.862;4.696;2022-12-01T07:28:29;57.50;;;22.73;;
19869;SDS011;10097;50.862;4.696;2022-12-01T07:31:02;52.17;;;21.13;;
19869;SDS011;10097;50.862;4.696;2022-12-01T07:33:29;58.07;;;22.37;;
19869;SDS011;10097;50.862;4.696;2022-12-01T07:35:55;58.30;;;22.67;;
19869;SDS011;10097;50.862;4.696;2022-12-01T07:38:21;52.20;;;20.93;;
19869;SDS011;10097;50.862;4.696;2022-12-01T07:40:47;58.03;;;22.77;;
19869;SDS011;10097;50.862;4.696;2022-12-01T07:43:15;52.93;;;21.80;;
19869;SDS011;10097;50.862;4.696;2022-12-01T07:45:41;59.50;;;21.47;;
19869;SDS011;10097;50.862;4.696;2022-12-01T07:48:07;54.23;;;21.37;;
19869;SDS011;10097;50.862;4.696;2022-12-01T07:50:32;55.03;;;21.50;;
19869;SDS011;10097;50.862;4.696;2022-12-01T07:52:58;55.07;;;22.77;;
19869;SDS011;10097;50.862;4.696;2022-12-01T07:55:24;58.47;;;22.03;;
19869;SDS011;10097;50.862;4.696;2022-12-01T07:57:49;59.77;;;21.83;;
19869;SDS011;10097;50.862;4.696;2022-12-01T08:00:15;51.53;;;21.40;;
19869;SDS011;10097;50.862;4.696;2022-12-01T08:02:41;50.87;;;20.87;;
19869;SDS011;10097;50.862;4.696;2022-12-01T08:05:06;51.63;;;21.63;;
19869;SDS011;10097;50.862;4.696;2022-12-01T08:07:32;59.40;;;22.13;;
19869;SDS011;10097;50.862;4.696;2022-12-01T08:09:58;55.23;;;21.83;;
19869;SDS011;10097;50.862;4.696;2022-12-01T08:12:24;51.47;;;22.50;;
19869;SDS011;10097;50.862;4.696;2022-12-01T08:14:49;46.13;;;19.90;;
19869;SDS011;10097;50.862;4.696;2022-12-01T08:17:15;52.57;;;21.63;;
19869;SDS011;10097;50.862;4.696;2022-12-01T08:19:40;50.67;;;20.47;;
19869;SDS011;10097;50.862;4.696;2022-12-01T08:22:06;53.63;;;22.37;;
19869;SDS011;10097;50.862;4.696;2022-12-01T08:24:32;48.30;;;21.63;;
19869;SDS011;10097;50.862;4.696;2022-12-01T08:26:57;64.00;;;22.93;;
19869;SDS011;10097;50.862;4.696;2022-12-01T08:29:23;59.37;;;22.47;;
19869;SDS011;10097;50.862;4.696;2022-12-01T08:31:48;59.57;;;21.37;;
19869;SDS011;10097;50.862;4.696;2022-12-01T08:34:14;57.50;;;20.43;;
19869;SDS011;10097;50.862;4.696;2022-12-01T08:36:40;52.50;;;21.13;;
19869;SDS011;10097;50.862;4.696;2022-12-01T08:39:06;55.60;;;20.10;;
19869;SDS011;10097;50.862;4.696;2022-12-01T08:41:32;44.13;;;19.87;;
19869;SDS011;10097;50.862;4.696;2022-12-01T08:43:58;46.20;;;21.20;;
19869;SDS011;10097;50.862;4.696;2022-12-01T08:46:30;47.80;;;21.33;;
19869;SDS011;10097;50.862;4.696;2022-12-01T08:48:57;52.07;;;21.30;;
19869;SDS011;10097;50.862;4.696;2022-12-01T08:51:22;46.70;;;20.80;;
19869;SDS011;10097;50.862;4.696;2022-12-01T08:53:48;48.17;;;20.73;;
19869;SDS011;10097;50.862;4.696;2022-12-01T08:56:19;50.70;;;19.50;;
19869;SDS011;10097;50.862;4.696;2022-12-01T08:58:52;44.67;;;19.77;;
19869;SDS011;10097;50.862;4.696;2022-12-01T09:01:19;42.93;;;19.30;;
19869;SDS011;10097;50.862;4.696;2022-12-01T09:03:45;41.03;;;19.03;;
19869;SDS011;10097;50.862;4.696;2022-12-01T09:06:12;46.00;;;18.70;;
19869;SDS011;10097;50.862;4.696;2022-12-01T09:08:43;42.07;;;19.20;;
19869;SDS011;10097;50.862;4.696;2022-12-01T09:11:10;45.93;;;18.63;;
19869;SDS011;10097;50.862;4.696;2022-12-01T09:13:40;43.67;;;19.47;;
19869;SDS011;10097;50.862;4.696;2022-12-01T09:16:11;39.37;;;18.33;;
19869;SDS011;10097;50.862;4.696;2022-12-01T09:18:39;41.00;;;18.63;;
19869;SDS011;10097;50.862;4.696;2022-12-01T09:21:08;43.77;;;19.67;;
19869;SDS011;10097;50.862;4.696;2022-12-01T09:24:04;38.43;;;17.30;;
19869;SDS011;10097;50.862;4.696;2022-12-01T09:26:31;39.50;;;17.80;;
19869;SDS011;10097;50.862;4.696;2022-12-01T09:28:58;39.47;;;18.97;;
19869;SDS011;10097;50.862;4.696;2022-12-01T09:31:25;39.50;;;18.70;;
19869;SDS011;10097;50.862;4.696;2022-12-01T09:34:06;43.30;;;18.40;;
19869;SDS011;10097;50.862;4.696;2022-12-01T09:36:34;39.40;;;18.27;;
19869;SDS011;10097;50.862;4.696;2022-12-01T09:39:01;38.87;;;18.23;;
19869;SDS011;10097;50.862;4.696;2022-12-01T09:41:38;41.27;;;18.23;;
19869;SDS011;10097;50.862;4.696;2022-12-01T09:49:37;39.10;;;18.10;;
19869;SDS011;10097;50.862;4.696;2022-12-01T09:52:12;39.87;;;17.73;;
19869;SDS011;10097;50.862;4.696;2022-12-01T09:54:39;38.70;;;17.33;;
19869;SDS011;10097;50.862;4.696;2022-12-01T09:57:05;37.20;;;16.77;;
19869;SDS011;10097;50.862;4.696;2022-12-01T09:59:40;35.60;;;16.20;;
19869;SDS011;10097;50.862;4.696;2022-12-01T10:02:20;39.60;;;17.57;;
19869;SDS011;10097;50.862;4.696;2022-12-01T10:04:56;37.53;;;17.20;;
19869;SDS011;10097;50.862;4.696;2022-12-01T10:07:26;39.40;;;17.10;;
19869;SDS011;10097;50.862;4.696;2022-12-01T10:10:10;39.37;;;17.67;;
19869;SDS011;10097;50.862;4.696;2022-12-01T10:12:39;37.27;;;17.57;;
19869;SDS011;10097;50.862;4.696;2022-12-01T10:17:45;37.27;;;16.00;;
19869;SDS011;10097;50.862;4.696;2022-12-01T10:23:07;31.30;;;15.40;;
19869;SDS011;10097;50.862;4.696;2022-12-01T10:26:02;33.60;;;15.70;;
19869;SDS011;10097;50.862;4.696;2022-12-01T10:31:28;37.10;;;16.27;;
19869;SDS011;10097;50.862;4.696;2022-12-01T10:34:01;34.40;;;16.10;;
19869;SDS011;10097;50.862;4.696;2022-12-01T10:36:34;32.53;;;14.67;;
19869;SDS011;10097;50.862;4.696;2022-12-01T10:39:01;31.77;;;14.17;;
19869;SDS011;10097;50.862;4.696;2022-12-01T10:41:31;31.60;;;14.70;;
19869;SDS011;10097;50.862;4.696;2022-12-01T10:43:59;30.00;;;14.13;;
19869;SDS011;10097;50.862;4.696;2022-12-01T10:46:36;30.13;;;15.30;;
19869;SDS011;10097;50.862;4.696;2022-12-01T10:49:12;33.47;;;14.77;;
19869;SDS011;10097;50.862;4.696;2022-12-01T10:54:19;32.43;;;14.33;;
19869;SDS011;10097;50.862;4.696;2022-12-01T10:56:47;26.67;;;13.03;;
19869;SDS011;10097;50.862;4.696;2022-12-01T10:59:25;29.10;;;13.83;;
19869;SDS011;10097;50.862;4.696;2022-12-01T11:02:03;28.50;;;12.63;;
19869;SDS011;10097;50.862;4.696;2022-12-01T11:04:39;31.17;;;14.03;;
19869;SDS011;10097;50.862;4.696;2022-12-01T11:07:21;25.50;;;12.77;;
19869;SDS011;10097;50.862;4.696;2022-12-01T11:10:02;28.97;;;13.07;;
19869;SDS011;10097;50.862;4.696;2022-12-01T11:13:04;29.03;;;13.67;;
19869;SDS011;10097;50.862;4.696;2022-12-01T11:15:53;26.60;;;13.20;;
19869;SDS011;10097;50.862;4.696;2022-12-01T11:21:53;30.70;;;13.87;;
19869;SDS011;10097;50.862;4.696;2022-12-01T11:23:51;26.47;;;12.43;;
19869;SDS011;10097;50.862;4.696;2022-12-01T11:26:18;29.50;;;14.23;;
19869;SDS011;10097;50.862;4.696;2022-12-01T11:31:23;28.87;;;13.73;;
19869;SDS011;10097;50.862;4.696;2022-12-01T11:34:18;27.57;;;13.57;;
19869;SDS011;10097;50.862;4.696;2022-12-01T11:36:57;27.97;;;13.50;;
19869;SDS011;10097;50.862;4.696;2022-12-01T11:42:03;28.17;;;13.40;;
19869;SDS011;10097;50.862;4.696;2022-12-01T11:44:36;25.33;;;13.13;;
19869;SDS011;10097;50.862;4.696;2022-12-01T11:47:16;25.90;;;13.47;;
19869;SDS011;10097;50.862;4.696;2022-12-01T11:49:50;31.77;;;13.93;;
19869;SDS011;10097;50.862;4.696;2022-12-01T11:57:36;33.00;;;14.17;;
19869;SDS011;10097;50.862;4.696;2022-12-01T12:00:14;28.97;;;13.03;;
19869;SDS011;10097;50.862;4.696;2022-12-01T12:08:47;33.57;;;15.07;;
19869;SDS011;10097;50.862;4.696;2022-12-01T12:17:04;26.97;;;12.70;;
19869;SDS011;10097;50.862;4.696;2022-12-01T12:20:00;28.10;;;14.17;;
19869;SDS011;10097;50.862;4.696;2022-12-01T12:27:49;28.17;;;12.97;;
19869;SDS011;10097;50.862;4.696;2022-12-01T12:30:46;27.17;;;13.07;;
19869;SDS011;10097;50.862;4.696;2022-12-01T12:39:20;31.53;;;13.40;;
19869;SDS011;10097;50.862;4.696;2022-12-01T12:41:50;31.47;;;14.03;;
19869;SDS011;10097;50.862;4.696;2022-12-01T12:47:24;29.80;;;13.63;;
19869;SDS011;10097;50.862;4.696;2022-12-01T12:50:14;30.77;;;13.63;;
19869;SDS011;10097;50.862;4.696;2022-12-01T12:52:45;30.87;;;13.30;;
19869;SDS011;10097;50.862;4.696;2022-12-01T12:57:54;27.57;;;13.53;;
19869;SDS011;10097;50.862;4.696;2022-12-01T13:00:24;29.87;;;12.87;;
19869;SDS011;10097;50.862;4.696;2022-12-01T13:02:54;29.23;;;12.93;;
19869;SDS011;10097;50.862;4.696;2022-12-01T13:05:32;25.67;;;12.67;;
19869;SDS011;10097;50.862;4.696;2022-12-01T13:08:33;28.67;;;14.03;;
19869;SDS011;10097;50.862;4.696;2022-12-01T13:20:04;31.20;;;14.47;;
19869;SDS011;10097;50.862;4.696;2022-12-01T13:22:33;31.73;;;13.93;;
19869;SDS011;10097;50.862;4.696;2022-12-01T13:25:00;37.53;;;16.63;;
19869;SDS011;10097;50.862;4.696;2022-12-01T13:27:27;30.37;;;13.73;;
19869;SDS011;10097;50.862;4.696;2022-12-01T13:30:00;36.67;;;13.97;;
19869;SDS011;10097;50.862;4.696;2022-12-01T13:32:30;29.30;;;14.07;;
19869;SDS011;10097;50.862;4.696;2022-12-01T13:35:02;30.73;;;13.07;;
19869;SDS011;10097;50.862;4.696;2022-12-01T13:37:35;30.70;;;14.97;;
19869;SDS011;10097;50.862;4.696;2022-12-01T13:40:21;30.13;;;15.10;;
19869;SDS011;10097;50.862;4.696;2022-12-01T13:42:52;35.30;;;15.00;;
19869;SDS011;10097;50.862;4.696;2022-12-01T13:45:34;36.53;;;15.30;;
19869;SDS011;10097;50.862;4.696;2022-12-01T13:48:02;37.40;;;15.70;;
19869;SDS011;10097;50.862;4.696;2022-12-01T13:53:13;34.00;;;17.00;;
19869;SDS011;10097;50.862;4.696;2022-12-01T14:09:05;28.70;;;14.30;;
19869;SDS011;10097;50.862;4.696;2022-12-01T14:11:53;32.20;;;15.57;;
19869;SDS011;10097;50.862;4.696;2022-12-01T14:14:20;31.90;;;15.30;;
19869;SDS011;10097;50.862;4.696;2022-12-01T14:16:50;33.90;;;15.50;;
19869;SDS011;10097;50.862;4.696;2022-12-01T14:21:51;34.30;;;16.33;;
19869;SDS011;10097;50.862;4.696;2022-12-01T14:24:21;31.47;;;15.63;;
19869;SDS011;10097;50.862;4.696;2022-12-01T14:26:48;37.60;;;16.13;;
19869;SDS011;10097;50.862;4.696;2022-12-01T14:34:27;36.67;;;16.03;;
19869;SDS011;10097;50.862;4.696;2022-12-01T14:37:12;34.30;;;16.60;;
19869;SDS011;10097;50.862;4.696;2022-12-01T14:39:42;35.67;;;16.37;;
19869;SDS011;10097;50.862;4.696;2022-12-01T14:42:13;34.37;;;16.73;;
19869;SDS011;10097;50.862;4.696;2022-12-01T14:45:17;35.93;;;17.00;;
19869;SDS011;10097;50.862;4.696;2022-12-01T14:47:51;39.10;;;15.90;;
19869;SDS011;10097;50.862;4.696;2022-12-01T14:50:46;41.67;;;17.83;;
19869;SDS011;10097;50.862;4.696;2022-12-01T14:53:24;35.07;;;16.30;;
19869;SDS011;10097;50.862;4.696;2022-12-01T14:55:55;38.13;;;16.73;;
19869;SDS011;10097;50.862;4.696;2022-12-01T14:58:30;38.43;;;16.57;;
19869;SDS011;10097;50.862;4.696;2022-12-01T15:01:01;42.33;;;17.40;;
19869;SDS011;10097;50.862;4.696;2022-12-01T15:06:30;36.60;;;16.50;;
19869;SDS011;10097;50.862;4.696;2022-12-01T15:11:35;33.70;;;16.40;;
19869;SDS011;10097;50.862;4.696;2022-12-01T15:14:17;37.67;;;16.27;;
19869;SDS011;10097;50.862;4.696;2022-12-01T15:17:25;35.07;;;16.47;;
19869;SDS011;10097;50.862;4.696;2022-12-01T15:19:56;33.17;;;16.67;;
19869;SDS011;10097;50.862;4.696;2022-12-01T15:22:22;33.77;;;16.20;;
19869;SDS011;10097;50.862;4.696;2022-12-01T15:24:54;35.97;;;17.27;;
19869;SDS011;10097;50.862;4.696;2022-12-01T15:27:38;35.97;;;17.40;;
19869;SDS011;10097;50.862;4.696;2022-12-01T15:30:04;40.17;;;17.73;;
19869;SDS011;10097;50.862;4.696;2022-12-01T15:32:30;39.53;;;16.73;;
19869;SDS011;10097;50.862;4.696;2022-12-01T15:35:01;38.37;;;17.37;;
19869;SDS011;10097;50.862;4.696;2022-12-01T15:37:39;38.17;;;18.10;;
19869;SDS011;10097;50.862;4.696;2022-12-01T15:40:06;37.90;;;17.63;;
19869;SDS011;10097;50.862;4.696;2022-12-01T15:42:36;40.57;;;17.73;;
19869;SDS011;10097;50.862;4.696;2022-12-01T15:45:17;37.63;;;17.23;;
19869;SDS011;10097;50.862;4.696;2022-12-01T15:47:45;34.00;;;16.67;;
19869;SDS011;10097;50.862;4.696;2022-12-01T15:50:33;37.83;;;17.40;;
19869;SDS011;10097;50.862;4.696;2022-12-01T15:53:04;40.47;;;18.37;;
19869;SDS011;10097;50.862;4.696;2022-12-01T15:55:35;37.60;;;18.10;;
19869;SDS011;10097;50.862;4.696;2022-12-01T15:58:05;44.13;;;18.17;;
19869;SDS011;10097;50.862;4.696;2022-12-01T16:00:32;33.93;;;16.70;;
19869;SDS011;10097;50.862;4.696;2022-12-01T16:02:59;39.90;;;17.53;;
19869;SDS011;10097;50.862;4.696;2022-12-01T16:05:29;54.47;;;20.10;;
19869;SDS011;10097;50.862;4.696;2022-12-01T16:07:56;42.70;;;18.80;;
19869;SDS011;10097;50.862;4.696;2022-12-01T16:10:36;38.63;;;17.93;;
19869;SDS011;10097;50.862;4.696;2022-12-01T16:18:52;39.67;;;19.17;;
19869;SDS011;10097;50.862;4.696;2022-12-01T16:21:26;39.50;;;17.17;;
19869;SDS011;10097;50.862;4.696;2022-12-01T16:24:02;36.07;;;17.60;;
19869;SDS011;10097;50.862;4.696;2022-12-01T16:26:29;41.77;;;18.47;;
19869;SDS011;10097;50.862;4.696;2022-12-01T16:28:57;41.63;;;18.33;;
19869;SDS011;10097;50.862;4.696;2022-12-01T16:31:24;42.90;;;17.07;;
19869;SDS011;10097;50.862;4.696;2022-12-01T16:34:00;39.70;;;18.33;;
19869;SDS011;10097;50.862;4.696;2022-12-01T16:36:27;43.47;;;18.37;;
19869;SDS011;10097;50.862;4.696;2022-12-01T16:38:53;41.03;;;17.77;;
19869;SDS011;10097;50.862;4.696;2022-12-01T16:41:25;40.90;;;18.37;;
19869;SDS011;10097;50.862;4.696;2022-12-01T16:43:55;44.40;;;18.03;;
19869;SDS011;10097;50.862;4.696;2022-12-01T16:46:21;41.50;;;18.13;;
19869;SDS011;10097;50.862;4.696;2022-12-01T16:48:46;47.03;;;19.83;;
19869;SDS011;10097;50.862;4.696;2022-12-01T16:51:12;40.97;;;18.13;;
19869;SDS011;10097;50.862;4.696;2022-12-01T16:53:38;40.00;;;18.07;;
19869;SDS011;10097;50.862;4.696;2022-12-01T16:56:11;38.97;;;17.43;;
19869;SDS011;10097;50.862;4.696;2022-12-01T16:58:37;40.17;;;18.17;;
19869;SDS011;10097;50.862;4.696;2022-12-01T17:01:03;41.97;;;19.37;;